createdAt,value
2022-10-07T00:00:13.345Z,9.2
2022-10-07T00:01:13.140Z,9.19
2022-10-07T00:02:12.821Z,9.13
2022-10-07T00:03:12.950Z,9.07
2022-10-07T00:04:13.071Z,9.14
2022-10-07T00:05:12.858Z,8.99
2022-10-07T00:06:14.599Z,8.98
2022-10-07T00:07:13.503Z,9.15
2022-10-07T00:08:13.121Z,9.07
2022-10-07T00:09:13.002Z,9.17
2022-10-07T00:10:12.948Z,9.23
2022-10-07T00:12:14.613Z,9.11
2022-10-07T00:13:14.703Z,9.1
2022-10-07T00:14:14.678Z,9.29
2022-10-07T00:15:14.744Z,9.26
2022-10-07T00:16:16.044Z,9.23
2022-10-07T00:17:14.779Z,9.32
2022-10-07T00:18:14.779Z,9.33
2022-10-07T00:19:14.729Z,9.29
2022-10-07T00:20:14.978Z,9.35
2022-10-07T00:21:15.830Z,9.32
2022-10-07T00:22:14.789Z,9.34
2022-10-07T00:23:14.818Z,9.32
2022-10-07T00:24:14.799Z,9.34
2022-10-07T00:25:15.092Z,9.43
2022-10-07T00:26:16.457Z,9.5
2022-10-07T00:27:14.885Z,9.57
2022-10-07T00:28:14.948Z,9.65
2022-10-07T00:29:14.911Z,9.67
2022-10-07T00:30:14.923Z,9.58
2022-10-07T00:31:16.800Z,9.55
2022-10-07T00:32:14.945Z,9.6
2022-10-07T00:33:15.030Z,9.6
2022-10-07T00:34:15.004Z,9.54
2022-10-07T00:35:15.154Z,9.47
2022-10-07T00:36:16.428Z,9.43
2022-10-07T00:37:14.987Z,9.49
2022-10-07T00:38:15.034Z,9.51
2022-10-07T00:39:15.285Z,9.54
2022-10-07T00:40:15.312Z,9.56
2022-10-07T00:41:19.890Z,9.51
2022-10-07T00:42:16.085Z,9.61
2022-10-07T00:43:23.638Z,9.55
2022-10-07T00:45:23.865Z,9.66
2022-10-07T00:46:36.541Z,9.6
2022-10-07T00:47:29.615Z,9.6
2022-10-07T00:48:30.551Z,9.65
2022-10-07T00:49:28.971Z,9.69
2022-10-07T00:50:28.876Z,9.66
2022-10-07T00:51:28.743Z,9.61
2022-10-07T00:52:30.829Z,9.68
2022-10-07T00:53:31.757Z,9.67
2022-10-07T00:54:28.424Z,9.68
2022-10-07T00:55:29.565Z,9.65
2022-10-07T00:56:28.756Z,9.66
2022-10-07T00:57:29.449Z,9.74
2022-10-07T00:58:33.395Z,9.73
2022-10-07T00:59:30.308Z,9.73
2022-10-07T01:00:30.044Z,9.78
2022-10-07T01:01:30.485Z,9.83
2022-10-07T01:02:30.726Z,9.81
2022-10-07T01:03:30.611Z,9.76
2022-10-07T01:04:30.364Z,9.71
2022-10-07T01:05:30.309Z,9.74
2022-10-07T01:06:30.114Z,9.7
2022-10-07T01:07:30.155Z,9.78
2022-10-07T01:08:30.343Z,9.81
2022-10-07T01:09:30.401Z,9.79
2022-10-07T01:10:38.029Z,9.76
2022-10-07T01:13:44.936Z,9.72
2022-10-07T01:15:52.098Z,9.8
2022-10-07T01:18:03.066Z,9.7
2022-10-07T01:19:04.024Z,9.64
2022-10-07T01:21:08.409Z,9.64
2022-10-07T01:27:19.004Z,9.76
2022-10-07T01:28:24.417Z,9.71
2022-10-07T01:30:20.993Z,9.78
2022-10-07T01:31:24.904Z,9.75
2022-10-07T01:32:30.819Z,9.74
2022-10-07T01:33:25.062Z,9.73
2022-10-07T01:34:24.374Z,9.67
2022-10-07T01:35:23.670Z,9.62
2022-10-07T01:36:23.866Z,9.67
2022-10-07T01:37:24.350Z,9.62
2022-10-07T01:38:23.694Z,9.58
2022-10-07T01:39:25.424Z,9.62
2022-10-07T01:40:28.110Z,9.58
2022-10-07T01:41:24.955Z,9.59
2022-10-07T01:42:25.272Z,9.61
2022-10-07T01:43:24.805Z,9.61
2022-10-07T01:44:28.138Z,9.54
2022-10-07T01:45:26.634Z,9.52
2022-10-07T01:46:25.959Z,9.58
2022-10-07T01:47:25.622Z,9.62
2022-10-07T01:48:25.101Z,9.67
2022-10-07T01:49:25.313Z,9.6
2022-10-07T01:50:27.163Z,9.61
2022-10-07T01:51:27.405Z,9.58
2022-10-07T01:52:39.000Z,9.68
2022-10-07T02:00:49.136Z,9.66
2022-10-07T02:05:59.133Z,9.61
2022-10-07T02:09:03.314Z,9.44
2022-10-07T02:10:10.594Z,9.5
2022-10-07T02:11:14.393Z,9.47
2022-10-07T02:12:13.925Z,9.46
2022-10-07T02:14:18.731Z,9.39
2022-10-07T02:16:23.173Z,9.5
2022-10-07T02:17:20.896Z,9.46
2022-10-07T02:18:20.111Z,9.43
2022-10-07T02:19:22.419Z,9.46
2022-10-07T02:20:21.312Z,9.46
2022-10-07T02:21:22.840Z,9.45
2022-10-07T02:22:21.843Z,9.65
2022-10-07T02:23:21.457Z,9.61
2022-10-07T02:24:22.596Z,9.54
2022-10-07T02:25:20.840Z,9.48
2022-10-07T02:26:21.664Z,9.5
2022-10-07T02:27:23.211Z,9.44
2022-10-07T02:28:22.047Z,9.45
2022-10-07T02:29:21.256Z,9.46
2022-10-07T02:30:20.789Z,9.47
2022-10-07T02:31:24.088Z,9.47
2022-10-07T02:32:23.061Z,9.51
2022-10-07T02:33:22.604Z,9.53
2022-10-07T02:34:22.636Z,9.51
2022-10-07T02:37:30.630Z,9.5
2022-10-07T02:38:26.862Z,9.58
2022-10-07T02:39:27.895Z,9.57
2022-10-07T02:40:31.797Z,9.6
2022-10-07T02:48:47.519Z,9.47
2022-10-07T02:49:47.683Z,9.4
2022-10-07T02:50:47.021Z,9.45
2022-10-07T02:51:50.229Z,9.43
2022-10-07T02:52:48.187Z,9.54
2022-10-07T02:53:48.368Z,9.52
2022-10-07T02:54:54.626Z,9.5
2022-10-07T02:55:52.495Z,9.47
2022-10-07T02:56:52.118Z,9.46
2022-10-07T02:57:57.415Z,9.44
2022-10-07T02:58:54.674Z,9.53
2022-10-07T02:59:54.633Z,9.58
2022-10-07T03:01:00.700Z,9.55
2022-10-07T03:02:00.310Z,9.58
2022-10-07T03:03:00.032Z,9.63
2022-10-07T03:03:57.819Z,9.55
2022-10-07T03:04:57.791Z,9.62
2022-10-07T03:05:57.457Z,9.59
2022-10-07T03:06:58.394Z,9.67
2022-10-07T03:07:58.976Z,9.61
2022-10-07T03:08:57.809Z,9.54
2022-10-07T03:09:57.448Z,9.54
2022-10-07T03:10:57.409Z,9.48
2022-10-07T03:11:57.477Z,9.52
2022-10-07T03:12:57.712Z,9.45
2022-10-07T03:13:57.557Z,9.45
2022-10-07T03:14:57.496Z,9.44
2022-10-07T03:15:57.575Z,9.39
2022-10-07T03:16:57.552Z,9.4
2022-10-07T03:17:57.544Z,9.45
2022-10-07T03:18:57.793Z,9.51
2022-10-07T03:19:57.583Z,9.47
2022-10-07T03:20:58.683Z,9.43
2022-10-07T03:21:57.914Z,9.42
2022-10-07T03:22:58.086Z,9.4
2022-10-07T03:23:57.608Z,9.39
2022-10-07T03:24:57.976Z,9.43
2022-10-07T03:25:58.456Z,9.45
2022-10-07T03:26:57.650Z,9.47
2022-10-07T03:27:57.733Z,9.44
2022-10-07T03:28:58.040Z,9.51
2022-10-07T03:29:57.726Z,9.48
2022-10-07T03:31:04.556Z,9.56
2022-10-07T03:32:01.940Z,9.58
2022-10-07T03:33:01.381Z,9.54
2022-10-07T03:34:01.409Z,9.53
2022-10-07T03:35:01.413Z,9.6
2022-10-07T03:36:01.400Z,9.62
2022-10-07T03:37:01.431Z,9.69
2022-10-07T03:38:01.450Z,9.77
2022-10-07T03:39:01.635Z,9.61
2022-10-07T03:40:01.449Z,9.56
2022-10-07T03:41:01.937Z,9.59
2022-10-07T03:42:01.767Z,9.54
2022-10-07T03:43:01.726Z,9.66
2022-10-07T03:44:01.465Z,9.66
2022-10-07T03:45:01.553Z,9.6
2022-10-07T03:46:01.577Z,9.77
2022-10-07T03:47:01.538Z,9.7
2022-10-07T03:48:01.596Z,9.63
2022-10-07T03:49:01.554Z,9.77
2022-10-07T03:50:01.565Z,9.69
2022-10-07T03:51:01.614Z,9.64
2022-10-07T03:52:01.977Z,9.72
2022-10-07T03:53:01.699Z,9.73
2022-10-07T03:54:01.939Z,9.78
2022-10-07T03:55:01.649Z,9.84
2022-10-07T03:56:01.653Z,9.75
2022-10-07T03:57:01.906Z,9.73
2022-10-07T03:58:01.682Z,9.73
2022-10-07T03:59:01.742Z,9.73
2022-10-07T04:00:01.683Z,9.8
2022-10-07T04:01:08.476Z,9.78
2022-10-07T04:02:05.186Z,9.78
2022-10-07T04:03:05.148Z,9.82
2022-10-07T04:04:05.159Z,9.81
2022-10-07T04:05:05.429Z,9.78
2022-10-07T04:06:05.542Z,9.78
2022-10-07T04:07:05.168Z,9.71
2022-10-07T04:08:05.519Z,9.73
2022-10-07T04:09:05.216Z,9.74
2022-10-07T04:10:05.793Z,9.76
2022-10-07T04:11:05.439Z,9.79
2022-10-07T04:12:05.254Z,9.75
2022-10-07T04:13:05.272Z,9.69
2022-10-07T04:14:05.265Z,9.7
2022-10-07T04:15:05.826Z,9.74
2022-10-07T04:16:09.544Z,9.71
2022-10-07T04:17:06.353Z,9.67
2022-10-07T04:18:06.435Z,9.73
2022-10-07T04:19:06.408Z,9.77
2022-10-07T04:20:06.863Z,9.73
2022-10-07T04:21:06.443Z,9.72
2022-10-07T04:22:08.831Z,9.76
2022-10-07T04:23:06.519Z,9.77
2022-10-07T04:24:06.508Z,9.8
2022-10-07T04:25:07.503Z,9.79
2022-10-07T04:26:07.336Z,9.84
2022-10-07T04:27:06.493Z,9.8
2022-10-07T04:28:12.063Z,9.81
2022-10-07T04:29:08.789Z,9.88
2022-10-07T04:30:09.433Z,9.91
2022-10-07T04:31:09.756Z,9.85
2022-10-07T04:32:08.876Z,9.85
2022-10-07T04:33:09.320Z,9.87
2022-10-07T04:34:09.172Z,9.89
2022-10-07T04:35:09.258Z,9.88
2022-10-07T04:36:09.568Z,9.95
2022-10-07T04:37:08.905Z,9.93
2022-10-07T04:38:09.867Z,9.91
2022-10-07T04:39:08.957Z,9.88
2022-10-07T04:40:09.515Z,9.86
2022-10-07T04:41:09.007Z,9.91
2022-10-07T04:42:09.141Z,9.87
2022-10-07T04:43:11.248Z,9.83
2022-10-07T04:44:09.014Z,9.92
2022-10-07T04:45:09.039Z,9.95
2022-10-07T04:46:10.372Z,9.96
2022-10-07T04:47:09.369Z,10.02
2022-10-07T04:48:09.293Z,9.95
2022-10-07T04:49:09.328Z,9.94
2022-10-07T04:50:09.523Z,9.96
2022-10-07T04:51:09.566Z,9.92
2022-10-07T04:52:09.137Z,10.04
2022-10-07T04:53:10.006Z,10.09
2022-10-07T04:54:09.147Z,9.99
2022-10-07T04:55:12.456Z,9.95
2022-10-07T04:56:09.249Z,10.01
2022-10-07T04:57:09.190Z,10.01
2022-10-07T04:58:09.366Z,10.05
2022-10-07T05:00:10.118Z,10.11
2022-10-07T05:01:09.643Z,10.16
2022-10-07T05:02:09.378Z,10.09
2022-10-07T05:03:09.501Z,10.04
2022-10-07T05:04:09.294Z,10.06
2022-10-07T05:05:09.526Z,10.09
2022-10-07T05:07:09.321Z,10.06
2022-10-07T05:08:09.534Z,10.07
2022-10-07T05:09:10.189Z,10.08
2022-10-07T05:10:10.134Z,10.19
2022-10-07T05:11:09.447Z,10.18
2022-10-07T05:12:09.696Z,10.22
2022-10-07T05:13:11.329Z,10.24
2022-10-07T05:14:09.630Z,10.25
2022-10-07T05:15:09.728Z,10.22
2022-10-07T05:16:09.653Z,10.33
2022-10-07T05:17:09.705Z,10.27
2022-10-07T05:18:09.517Z,10.26
2022-10-07T05:19:10.413Z,10.26
2022-10-07T05:20:10.102Z,10.21
2022-10-07T05:21:09.843Z,10.22
2022-10-07T05:22:10.028Z,10.29
2022-10-07T05:23:10.358Z,10.26
2022-10-07T05:24:09.680Z,10.26
2022-10-07T05:25:09.812Z,10.23
2022-10-07T05:26:10.445Z,10.22
2022-10-07T05:27:09.679Z,10.27
2022-10-07T05:28:10.553Z,10.28
2022-10-07T05:29:09.905Z,10.33
2022-10-07T05:30:10.239Z,10.38
2022-10-07T05:31:14.083Z,10.38
2022-10-07T05:32:10.895Z,10.45
2022-10-07T05:33:10.800Z,10.44
2022-10-07T05:34:10.765Z,10.38
2022-10-07T05:35:11.834Z,10.34
2022-10-07T05:36:10.845Z,10.29
2022-10-07T05:37:11.594Z,10.34
2022-10-07T05:38:10.887Z,10.36
2022-10-07T05:39:11.597Z,10.39
2022-10-07T05:40:10.904Z,10.35
2022-10-07T05:41:12.359Z,10.35
2022-10-07T05:42:11.141Z,10.39
2022-10-07T05:43:11.073Z,10.44
2022-10-07T05:44:10.945Z,10.42
2022-10-07T05:45:11.305Z,10.46
2022-10-07T05:46:12.017Z,10.49
2022-10-07T05:47:10.975Z,10.46
2022-10-07T05:48:10.956Z,10.45
2022-10-07T05:49:11.050Z,10.49
2022-10-07T05:50:10.987Z,10.52
2022-10-07T05:51:11.071Z,10.54
2022-10-07T05:52:11.654Z,10.51
2022-10-07T05:53:11.114Z,10.5
2022-10-07T05:54:12.101Z,10.55
2022-10-07T05:55:11.311Z,10.54
2022-10-07T05:56:14.735Z,10.53
2022-10-07T05:57:11.468Z,10.53
2022-10-07T05:58:11.465Z,10.55
2022-10-07T05:59:11.443Z,10.56
2022-10-07T06:00:11.986Z,10.53
2022-10-07T06:01:15.655Z,10.61
2022-10-07T06:02:13.902Z,10.6
2022-10-07T06:03:12.422Z,10.62
2022-10-07T06:04:12.589Z,10.66
2022-10-07T06:05:12.436Z,10.64
2022-10-07T06:06:12.430Z,10.67
2022-10-07T06:07:15.888Z,10.63
2022-10-07T06:08:17.649Z,10.67
2022-10-07T06:09:16.966Z,10.67
2022-10-07T06:10:17.186Z,10.72
2022-10-07T06:11:17.638Z,10.74
2022-10-07T06:12:17.062Z,10.76
2022-10-07T06:13:17.217Z,10.77
2022-10-07T06:14:17.027Z,10.78
2022-10-07T06:15:17.249Z,10.76
2022-10-07T06:16:17.842Z,10.75
2022-10-07T06:17:17.101Z,10.74
2022-10-07T06:18:18.204Z,10.7
2022-10-07T06:19:17.130Z,10.69
2022-10-07T06:20:17.185Z,10.75
2022-10-07T06:21:17.250Z,10.8
2022-10-07T06:22:17.223Z,10.78
2022-10-07T06:23:17.203Z,10.75
2022-10-07T06:24:17.474Z,10.8
2022-10-07T06:25:17.213Z,10.79
2022-10-07T06:26:17.451Z,10.83
2022-10-07T06:27:17.458Z,10.86
2022-10-07T06:28:17.424Z,10.81
2022-10-07T06:29:17.510Z,10.82
2022-10-07T06:30:17.335Z,10.83
2022-10-07T06:31:19.093Z,10.83
2022-10-07T06:32:17.989Z,10.89
2022-10-07T06:33:18.548Z,10.81
2022-10-07T06:34:17.367Z,10.82
2022-10-07T06:35:17.497Z,10.84
2022-10-07T06:36:18.062Z,10.9
2022-10-07T06:37:17.422Z,11.16
2022-10-07T06:38:17.476Z,10.98
2022-10-07T06:39:17.404Z,10.91
2022-10-07T06:40:17.472Z,10.9
2022-10-07T06:41:18.257Z,10.88
2022-10-07T06:42:17.706Z,11.12
2022-10-07T06:43:17.492Z,10.97
2022-10-07T06:44:17.486Z,10.9
2022-10-07T06:45:17.734Z,10.93
2022-10-07T06:46:18.905Z,10.89
2022-10-07T06:47:17.543Z,10.99
2022-10-07T06:48:17.730Z,10.96
2022-10-07T06:49:17.848Z,11.02
2022-10-07T06:50:17.617Z,11.01
2022-10-07T06:51:19.069Z,11.02
2022-10-07T06:52:17.666Z,11
2022-10-07T06:53:17.844Z,11
2022-10-07T06:54:17.861Z,11
2022-10-07T06:55:17.683Z,11.03
2022-10-07T06:56:17.952Z,11.05
2022-10-07T06:57:40.826Z,11.19
2022-10-07T06:58:19.158Z,11.14
2022-10-07T06:59:19.178Z,11.11
2022-10-07T07:00:19.616Z,11.1
2022-10-07T07:01:19.282Z,11.12
2022-10-07T07:02:19.325Z,11.2
2022-10-07T07:03:19.785Z,11.18
2022-10-07T07:04:19.253Z,11.24
2022-10-07T07:05:19.318Z,11.23
2022-10-07T07:06:19.302Z,11.25
2022-10-07T07:07:19.359Z,11.26
2022-10-07T07:08:19.487Z,11.24
2022-10-07T07:09:19.343Z,11.25
2022-10-07T07:10:19.349Z,11.27
2022-10-07T07:11:19.377Z,11.28
2022-10-07T07:12:19.469Z,11.33
2022-10-07T07:13:19.390Z,11.33
2022-10-07T07:14:19.428Z,11.41
2022-10-07T07:15:19.633Z,11.34
2022-10-07T07:16:19.525Z,11.35
2022-10-07T07:17:19.518Z,11.36
2022-10-07T07:18:19.473Z,11.36
2022-10-07T07:19:19.494Z,11.36
2022-10-07T07:20:19.519Z,11.36
2022-10-07T07:21:20.077Z,11.4
2022-10-07T07:22:19.621Z,11.44
2022-10-07T07:23:19.594Z,11.41
2022-10-07T07:24:19.563Z,11.43
2022-10-07T07:25:19.990Z,11.43
2022-10-07T07:26:20.001Z,11.41
2022-10-07T07:27:19.628Z,11.45
2022-10-07T07:28:19.698Z,11.47
2022-10-07T07:29:19.682Z,11.51
2022-10-07T07:30:19.668Z,11.57
2022-10-07T07:31:20.006Z,11.56
2022-10-07T07:32:19.739Z,11.63
2022-10-07T07:33:19.947Z,11.66
2022-10-07T07:34:19.745Z,11.62
2022-10-07T07:35:19.754Z,11.61
2022-10-07T07:36:21.633Z,11.58
2022-10-07T07:37:19.803Z,11.6
2022-10-07T07:38:23.382Z,11.59
2022-10-07T07:39:21.711Z,11.59
2022-10-07T07:40:22.209Z,11.59
2022-10-07T07:41:23.380Z,11.59
2022-10-07T07:42:22.004Z,11.6
2022-10-07T07:43:22.052Z,11.64
2022-10-07T07:44:21.847Z,11.63
2022-10-07T07:45:21.822Z,11.62
2022-10-07T07:46:23.069Z,11.61
2022-10-07T07:47:22.006Z,11.63
2022-10-07T07:48:22.051Z,11.63
2022-10-07T07:49:22.545Z,11.65
2022-10-07T07:50:21.885Z,11.65
2022-10-07T07:51:22.136Z,11.65
2022-10-07T07:52:21.916Z,11.7
2022-10-07T07:53:22.313Z,11.7
2022-10-07T07:54:21.949Z,11.69
2022-10-07T07:55:22.566Z,11.69
2022-10-07T07:56:22.030Z,11.69
2022-10-07T07:57:21.978Z,11.68
2022-10-07T07:58:22.613Z,11.69
2022-10-07T07:59:22.379Z,11.75
2022-10-07T08:00:22.066Z,11.74
2022-10-07T08:01:22.269Z,11.74
2022-10-07T08:02:22.572Z,11.73
2022-10-07T08:03:22.164Z,11.75
2022-10-07T08:04:22.151Z,11.75
2022-10-07T08:05:24.123Z,11.76
2022-10-07T08:06:22.337Z,11.72
2022-10-07T08:07:22.255Z,11.73
2022-10-07T08:08:22.249Z,11.69
2022-10-07T08:09:22.880Z,11.71
2022-10-07T08:10:22.213Z,11.68
2022-10-07T08:11:22.449Z,11.68
2022-10-07T08:12:22.312Z,11.68
2022-10-07T08:13:22.260Z,11.72
2022-10-07T08:14:22.452Z,11.71
2022-10-07T08:15:22.327Z,11.72
2022-10-07T08:16:23.028Z,11.74
2022-10-07T08:17:22.518Z,11.79
2022-10-07T08:18:22.509Z,11.81
2022-10-07T08:19:22.414Z,11.79
2022-10-07T08:20:22.458Z,11.81
2022-10-07T08:21:23.967Z,11.84
2022-10-07T08:22:22.437Z,11.85
2022-10-07T08:23:22.416Z,11.84
2022-10-07T08:24:22.460Z,11.82
2022-10-07T08:25:24.028Z,11.76
2022-10-07T08:26:22.671Z,11.8
2022-10-07T08:27:22.496Z,11.81
2022-10-07T08:28:23.400Z,11.8
2022-10-07T08:29:22.558Z,11.83
2022-10-07T08:30:22.583Z,11.84
2022-10-07T08:31:22.820Z,11.84
2022-10-07T08:32:22.560Z,11.8
2022-10-07T08:33:22.600Z,11.8
2022-10-07T08:34:22.635Z,11.8
2022-10-07T08:35:22.839Z,11.77
2022-10-07T08:36:24.056Z,11.81
2022-10-07T08:37:22.658Z,11.86
2022-10-07T08:38:22.681Z,11.89
2022-10-07T08:39:22.939Z,11.91
2022-10-07T08:40:22.698Z,11.88
2022-10-07T08:42:40.080Z,11.9
2022-10-07T08:43:26.985Z,11.9
2022-10-07T08:44:29.758Z,11.94
2022-10-07T08:45:31.487Z,12.03
2022-10-07T08:46:30.857Z,11.93
2022-10-07T08:47:39.734Z,11.89
2022-10-07T08:48:34.123Z,11.88
2022-10-07T08:52:47.945Z,11.81
2022-10-07T08:53:47.519Z,11.83
2022-10-07T08:54:44.940Z,11.86
2022-10-07T08:55:49.593Z,11.78
2022-10-07T08:56:48.786Z,11.79
2022-10-07T08:57:52.407Z,11.8
2022-10-07T08:59:55.257Z,11.79
2022-10-07T09:00:59.248Z,11.79
2022-10-07T09:04:15.663Z,11.94
2022-10-07T09:06:09.949Z,11.88
2022-10-07T09:07:13.362Z,11.9
2022-10-07T09:08:22.288Z,11.86
2022-10-07T09:09:22.046Z,11.9
2022-10-07T09:11:20.487Z,11.84
2022-10-07T09:12:20.539Z,11.9
2022-10-07T09:13:27.419Z,11.92
2022-10-07T09:15:23.099Z,11.77
2022-10-07T09:16:22.703Z,11.75
2022-10-07T09:17:22.603Z,11.7
2022-10-07T09:18:25.151Z,11.69
2022-10-07T09:20:30.336Z,11.74
2022-10-07T09:23:31.330Z,11.76
2022-10-07T09:24:30.534Z,11.8
2022-10-07T09:25:30.855Z,11.8
2022-10-07T09:26:30.087Z,11.76
2022-10-07T09:27:30.026Z,11.78
2022-10-07T09:28:31.288Z,11.8
2022-10-07T09:29:30.427Z,11.81
2022-10-07T09:30:30.105Z,11.78
2022-10-07T09:31:30.412Z,11.84
2022-10-07T09:32:30.389Z,11.86
2022-10-07T09:33:30.378Z,11.93
2022-10-07T09:34:31.327Z,11.95
2022-10-07T09:35:30.598Z,11.95
2022-10-07T09:36:30.174Z,11.95
2022-10-07T09:37:30.290Z,11.98
2022-10-07T09:38:34.637Z,12.05
2022-10-07T09:39:30.845Z,12.12
2022-10-07T09:41:33.002Z,12.24
2022-10-07T09:42:34.972Z,12.29
2022-10-07T09:43:32.030Z,12.24
2022-10-07T09:44:31.378Z,12.26
2022-10-07T09:45:32.316Z,12.37
2022-10-07T09:47:37.067Z,12.47
2022-10-07T09:48:35.154Z,12.57
2022-10-07T09:49:41.583Z,12.59
2022-10-07T09:50:39.341Z,12.71
2022-10-07T09:51:38.324Z,12.84
2022-10-07T09:52:38.344Z,12.84
2022-10-07T09:54:40.719Z,12.88
2022-10-07T09:55:41.204Z,12.74
2022-10-07T09:56:42.205Z,12.72
2022-10-07T09:57:43.610Z,12.78
2022-10-07T09:58:40.699Z,12.7
2022-10-07T09:59:40.670Z,12.73
2022-10-07T10:00:42.666Z,12.66
2022-10-07T10:01:40.800Z,12.61
2022-10-07T10:02:43.042Z,12.54
2022-10-07T10:03:41.089Z,12.54
2022-10-07T10:04:51.144Z,12.53
2022-10-07T10:06:48.274Z,12.53
2022-10-07T10:07:48.142Z,12.58
2022-10-07T10:08:55.343Z,12.51
2022-10-07T10:09:50.527Z,12.5
2022-10-07T10:10:54.343Z,12.47
2022-10-07T10:12:53.799Z,12.51
2022-10-07T10:13:52.729Z,12.51
2022-10-07T10:14:58.139Z,12.52
2022-10-07T10:15:55.202Z,12.47
2022-10-07T10:16:54.823Z,12.46
2022-10-07T10:17:55.319Z,12.46
2022-10-07T10:19:02.955Z,12.38
2022-10-07T10:22:04.921Z,12.46
2022-10-07T10:24:06.117Z,12.49
2022-10-07T10:25:05.862Z,12.46
2022-10-07T10:27:14.992Z,12.57
2022-10-07T10:35:30.835Z,12.74
2022-10-07T10:36:29.982Z,12.83
2022-10-07T10:40:47.683Z,12.93
2022-10-07T10:41:46.504Z,12.84
2022-10-07T10:42:47.835Z,12.79
2022-10-07T10:43:55.137Z,12.77
2022-10-07T10:44:51.372Z,12.81
2022-10-07T10:55:22.521Z,12.6
2022-10-07T11:00:22.727Z,12.7
2022-10-07T11:03:32.297Z,12.75
2022-10-07T11:05:26.230Z,12.8
2022-10-07T11:06:26.425Z,12.84
2022-10-07T11:07:28.811Z,12.85
2022-10-07T11:08:27.593Z,13
2022-10-07T11:11:30.645Z,13.21
2022-10-07T11:12:34.079Z,13.09
2022-10-07T11:14:34.867Z,13.3
2022-10-07T11:15:36.697Z,13.49
2022-10-07T11:17:34.884Z,13.78
2022-10-07T11:19:38.186Z,13.6
2022-10-07T11:20:37.975Z,13.78
2022-10-07T11:21:42.100Z,13.87
2022-10-07T11:22:41.382Z,14.05
2022-10-07T11:23:46.599Z,13.99
2022-10-07T11:24:45.838Z,13.91
2022-10-07T11:25:47.337Z,14
2022-10-07T11:26:51.162Z,13.86
2022-10-07T11:27:50.529Z,13.83
2022-10-07T11:28:49.915Z,13.7
2022-10-07T11:32:00.577Z,13.79
2022-10-07T11:36:13.571Z,14.07
2022-10-07T11:37:15.140Z,13.91
2022-10-07T11:38:16.987Z,14.14
2022-10-07T11:39:13.667Z,14.5
2022-10-07T11:40:13.865Z,14.21
2022-10-07T11:41:18.508Z,14.47
2022-10-07T11:42:17.065Z,14.31
2022-10-07T11:43:21.554Z,14.4
2022-10-07T11:44:22.238Z,14.23
2022-10-07T11:45:25.566Z,14.1
2022-10-07T11:47:27.679Z,14.27
2022-10-07T11:48:26.784Z,14.13
2022-10-07T11:51:31.736Z,14.18
2022-10-07T11:52:29.821Z,14.35
2022-10-07T11:53:31.328Z,14.35
2022-10-07T11:54:31.443Z,14.21
2022-10-07T11:55:31.968Z,14.26
2022-10-07T11:56:31.413Z,14.25
2022-10-07T11:57:30.480Z,14.3
2022-10-07T12:00:34.560Z,13.92
2022-10-07T12:01:40.257Z,13.85
2022-10-07T12:02:41.038Z,13.76
2022-10-07T12:03:46.718Z,13.75
2022-10-07T12:04:39.010Z,13.78
2022-10-07T12:06:39.827Z,13.7
2022-10-07T12:08:40.958Z,14.23
2022-10-07T12:10:42.886Z,14.11
2022-10-07T12:11:46.192Z,14.21
2022-10-07T12:13:49.397Z,14.17
2022-10-07T12:15:49.225Z,13.94
2022-10-07T12:16:54.635Z,13.92
2022-10-07T12:20:59.702Z,13.75
2022-10-07T12:27:14.952Z,13.69
2022-10-07T12:34:37.902Z,14.32
2022-10-07T12:36:30.472Z,14.61
2022-10-07T12:38:31.373Z,14.05
2022-10-07T12:39:34.026Z,13.87
2022-10-07T12:40:34.872Z,13.89
2022-10-07T12:41:40.678Z,14
2022-10-07T12:42:33.469Z,14.12
2022-10-07T12:43:45.821Z,14.07
2022-10-07T12:44:40.807Z,13.96
2022-10-07T12:45:40.120Z,13.9
2022-10-07T12:47:39.203Z,14.01
2022-10-07T12:49:45.223Z,14.21
2022-10-07T12:50:44.177Z,14.08
2022-10-07T12:51:43.819Z,14.18
2022-10-07T12:53:45.683Z,14.31
2022-10-07T12:55:49.710Z,14.13
2022-10-07T12:56:47.852Z,14.16
2022-10-07T12:57:51.818Z,14.12
2022-10-07T13:14:39.885Z,13.87
2022-10-07T13:15:41.057Z,13.89
2022-10-07T13:17:46.973Z,13.92
2022-10-07T13:21:02.245Z,13.5
2022-10-07T13:21:55.824Z,13.46
2022-10-07T13:22:52.741Z,13.46
2022-10-07T13:23:53.551Z,13.19
2022-10-07T13:24:56.535Z,13.35
2022-10-07T13:25:54.716Z,13.42
2022-10-07T13:26:53.492Z,13.42
2022-10-07T13:27:57.331Z,13.31
2022-10-07T13:28:58.117Z,13.22
2022-10-07T13:29:55.652Z,13.19
2022-10-07T13:30:54.957Z,13.28
2022-10-07T13:32:55.271Z,13.34
2022-10-07T13:33:56.797Z,13.42
2022-10-07T13:34:56.092Z,13.47
2022-10-07T13:36:08.406Z,13.42
2022-10-07T13:37:00.329Z,13.41
2022-10-07T13:38:00.095Z,13.32
2022-10-07T13:41:14.689Z,13.4
2022-10-07T13:42:11.097Z,13.45
2022-10-07T13:43:08.880Z,13.42
2022-10-07T13:44:12.237Z,13.45
2022-10-07T13:45:13.137Z,13.41
2022-10-07T13:46:10.124Z,13.38
2022-10-07T13:47:19.614Z,13.37
2022-10-07T13:48:19.779Z,13.33
2022-10-07T13:49:17.739Z,13.33
2022-10-07T13:50:18.242Z,13.28
2022-10-07T13:53:26.324Z,13.14
2022-10-07T13:54:24.491Z,13.16
2022-10-07T13:55:30.109Z,13.22
2022-10-07T13:57:29.515Z,13.21
2022-10-07T13:58:28.446Z,13.19
2022-10-07T13:59:29.032Z,13.15
2022-10-07T14:00:29.253Z,13.14
2022-10-07T14:01:30.416Z,13.07
2022-10-07T14:02:28.740Z,13.05
2022-10-07T14:03:28.445Z,12.97
2022-10-07T14:04:29.467Z,13.03
2022-10-07T14:05:31.631Z,12.95
2022-10-07T14:06:35.961Z,12.93
2022-10-07T14:07:32.145Z,12.89
2022-10-07T14:08:32.182Z,12.86
2022-10-07T14:09:37.224Z,12.84
2022-10-07T14:10:33.425Z,12.83
2022-10-07T14:11:34.506Z,12.89
2022-10-07T14:13:36.078Z,12.94
2022-10-07T14:14:37.422Z,12.81
2022-10-07T14:15:36.600Z,12.81
2022-10-07T14:16:36.069Z,12.91
2022-10-07T14:19:39.120Z,12.88
2022-10-07T14:20:42.687Z,12.93
2022-10-07T14:21:41.667Z,12.9
2022-10-07T14:22:40.451Z,12.95
2022-10-07T14:23:38.946Z,12.92
2022-10-07T14:24:38.956Z,12.85
2022-10-07T14:26:44.152Z,12.86
2022-10-07T14:28:47.642Z,12.77
2022-10-07T14:29:47.299Z,12.85
2022-10-07T14:34:54.338Z,12.72
2022-10-07T14:41:08.622Z,12.4
2022-10-07T14:43:10.426Z,12.37
2022-10-07T14:44:10.517Z,12.32
2022-10-07T14:45:14.626Z,12.42
2022-10-07T14:46:24.828Z,12.32
2022-10-07T14:47:15.596Z,12.33
2022-10-07T14:48:13.395Z,12.35
2022-10-07T14:49:12.335Z,12.37
2022-10-07T14:50:12.799Z,12.42
2022-10-07T14:51:13.329Z,12.32
2022-10-07T14:52:17.698Z,12.43
2022-10-07T14:53:15.891Z,12.43
2022-10-07T14:54:14.450Z,12.36
2022-10-07T14:55:21.741Z,12.29
2022-10-07T14:56:26.953Z,12.28
2022-10-07T14:57:18.708Z,12.32
2022-10-07T14:58:18.718Z,12.23
2022-10-07T14:59:18.687Z,12.35
2022-10-07T15:00:20.247Z,12.31
2022-10-07T15:01:18.675Z,12.3
2022-10-07T15:02:18.920Z,12.39
2022-10-07T15:03:18.748Z,12.32
2022-10-07T15:04:18.834Z,12.29
2022-10-07T15:05:19.171Z,12.21
2022-10-07T15:06:19.384Z,12.34
2022-10-07T15:07:21.084Z,12.35
2022-10-07T15:08:18.940Z,12.32
2022-10-07T15:09:18.726Z,12.16
2022-10-07T15:10:20.193Z,12.2
2022-10-07T15:11:20.905Z,12.3
2022-10-07T15:12:18.799Z,12.29
2022-10-07T15:13:18.924Z,12.27
2022-10-07T15:14:18.854Z,12.31
2022-10-07T15:15:18.908Z,12.27
2022-10-07T15:16:23.582Z,12.25
2022-10-07T15:17:20.824Z,12.14
2022-10-07T15:18:20.826Z,12.08
2022-10-07T15:19:20.862Z,12.04
2022-10-07T15:20:20.832Z,12.15
2022-10-07T15:21:21.839Z,12.18
2022-10-07T15:22:20.902Z,12.16
2022-10-07T15:23:20.932Z,12.26
2022-10-07T15:24:20.916Z,12.16
2022-10-07T15:25:20.914Z,12.25
2022-10-07T15:26:22.661Z,12.14
2022-10-07T15:27:20.980Z,12.14
2022-10-07T15:28:20.998Z,12.18
2022-10-07T15:29:20.988Z,12.13
2022-10-07T15:30:20.929Z,12.15
2022-10-07T15:31:21.895Z,12.11
2022-10-07T15:32:21.560Z,12.07
2022-10-07T15:33:21.030Z,12.1
2022-10-07T15:34:21.073Z,12.08
2022-10-07T15:35:21.035Z,12.1
2022-10-07T15:36:21.064Z,12.06
2022-10-07T15:37:21.909Z,12.09
2022-10-07T15:38:21.260Z,12.08
2022-10-07T15:39:21.066Z,11.99
2022-10-07T15:40:21.319Z,11.98
2022-10-07T15:42:24.085Z,12.07
2022-10-07T15:43:22.037Z,12.03
2022-10-07T15:44:22.113Z,12.06
2022-10-07T15:45:21.986Z,12.01
2022-10-07T15:46:22.064Z,11.99
2022-10-07T15:47:22.023Z,12.09
2022-10-07T15:48:22.426Z,12
2022-10-07T15:49:22.068Z,11.96
2022-10-07T15:50:22.203Z,11.96
2022-10-07T15:51:23.114Z,11.95
2022-10-07T15:52:22.078Z,11.97
2022-10-07T15:53:23.074Z,11.97
2022-10-07T15:54:22.090Z,12.1
2022-10-07T15:55:22.187Z,12.12
2022-10-07T15:56:22.134Z,12.04
2022-10-07T15:57:22.125Z,12.04
2022-10-07T15:58:23.369Z,11.93
2022-10-07T15:59:22.196Z,11.99
2022-10-07T16:00:22.183Z,12.03
2022-10-07T16:01:22.287Z,11.92
2022-10-07T16:02:22.277Z,11.98